Snow/Ice From: 23-10-2018 22:46 Until: 24-10-2018 08:00 warning for: Snow/Ice Level: Yellow info button
suomi:
Liikennesää: Ajokeli on huono tienpintojen jäätymisen vuoksi.

svenska:
Trafikvädret: Väglaget är dåligt p.g.a. tillfrysning av vägytor.

english:
Traffic weather warning: Bad road conditions are expected because of ice-covered roads. 


Thunder radar more information blitzortung!


Löydät sääaseman tiedot myös:

European Weather Network

Finland Weather Exchange

Weather Underground

AWEKAS



Weather Underground säähistoriasivu

Päivittäin yhteenveto Syyskuu 30, 2017 Yksiköt:  Englantilaiset    Metriset   Molemmat
« Edellinen Päivä
Seuraava Päivä »
Päivittäin Viikoittain Kuukausittain Vuosittain Mukautettu
  Korkea: Matala: Keskiarvo:
Lämpötila: TemperatureF °F 38.5 °F 41.4 °F
Kastepiste: DewpointF °F 37.9 °F 40.7 °F
Kosteus: Humidity % 95 % 96 %
Tuulen nopeus: WindSpeedMPH mph 0.0 mph 0.1 mph
Tuulenpuuska: WindSpeedGustMPH mph - -
Tuuli:- - South
Ilmanpaine: PressureIn in 30.48 in -
Sade: 0.00 in    
Historical Graphs
 
 
Taulukkotiedot Syyskuu 30, 2017
Aika Lämpötila Kastepiste Ilmanpaine Tuuli Tuulen nopeus Tuulenpuuska Kosteus Sademäärä (tunneittain)
TemperatureF °F DewpointF °F PressureIn in Calm     Humidity % HourlyPrecipIn in
00:00 41.4 °F 40.8 °F 30.57 in Calm     98 % 0.00 in
00:15 41.2 °F 40.6 °F 30.57 in Calm     98 % 0.00 in
00:30 41.0 °F 40.5 °F 30.57 in Calm     98 % 0.00 in
00:45 40.8 °F 40.5 °F 30.57 in Calm     98 % 0.00 in
01:00 40.8 °F 40.3 °F 30.57 in Calm     98 % 0.00 in
01:15 40.5 °F 39.9 °F 30.56 in Calm     98 % 0.00 in
01:30 40.1 °F 39.4 °F 30.56 in Calm     97 % 0.00 in
01:45 39.7 °F 39.2 °F 30.55 in Calm     98 % 0.00 in
02:00 39.6 °F 38.7 °F 30.55 in Calm     97 % 0.00 in
02:15 39.0 °F 38.3 °F 30.55 in Calm     97 % 0.00 in
02:30 38.8 °F 38.3 °F 30.55 in Calm     98 % 0.00 in
02:45 38.8 °F 38.3 °F 30.55 in Calm     98 % 0.00 in
03:00 38.8 °F 38.3 °F 30.55 in Calm     98 % 0.00 in
03:15 38.8 °F 38.3 °F 30.55 in Calm     98 % 0.00 in
03:30 39.0 °F 38.7 °F 30.55 in Calm     98 % 0.00 in
03:45 39.2 °F 38.7 °F 30.55 in Calm     98 % 0.00 in
04:00 39.4 °F 38.8 °F 30.54 in Calm   2.0 mph 98 % 0.00 in
04:15 39.0 °F 38.7 °F 30.54 in Calm     98 % 0.00 in
04:30 38.8 °F 38.3 °F 30.54 in Calm   2.0 mph 98 % 0.00 in
04:45 38.7 °F 38.1 °F 30.54 in Calm   2.0 mph 98 % 0.00 in
05:00 38.5 °F 37.9 °F 30.54 in Calm   1.0 mph 98 % 0.00 in
05:15 38.5 °F 37.9 °F 30.54 in Calm   1.0 mph 98 % 0.00 in
05:30 38.5 °F 37.9 °F 30.53 in Calm   2.0 mph 98 % 0.00 in
05:45 38.7 °F 38.1 °F 30.53 in Calm   5.0 mph 98 % 0.00 in
06:00 39.0 °F 38.7 °F 30.53 in Calm   4.0 mph 98 % 0.00 in
06:15 39.4 °F 38.8 °F 30.53 in Calm   1.0 mph 98 % 0.00 in
06:30 39.6 °F 39.0 °F 30.52 in Calm   4.0 mph 98 % 0.00 in
06:45 39.9 °F 39.4 °F 30.52 in Calm   1.0 mph 98 % 0.00 in
07:00 40.3 °F 39.7 °F 30.52 in Calm   5.0 mph 98 % 0.00 in
07:15 40.5 °F 39.9 °F 30.52 in Calm   3.0 mph 98 % 0.00 in
07:30 40.6 °F 40.1 °F 30.52 in Calm   4.0 mph 98 % 0.00 in
07:45 40.8 °F 40.3 °F 30.51 in Calm   2.0 mph 98 % 0.00 in
08:00 41.0 °F 40.5 °F 30.52 in SW 1.0 mph 4.0 mph 98 % 0.00 in
08:15 40.8 °F 40.5 °F 30.52 in Calm   2.0 mph 98 % 0.00 in
08:30 40.8 °F 40.3 °F 30.52 in Calm   2.0 mph 98 % 0.00 in
08:45 40.8 °F 40.5 °F 30.52 in SSE 1.0 mph 4.0 mph 98 % 0.00 in
09:00 40.8 °F 40.5 °F 30.53 in SE 1.0 mph 4.0 mph 98 % 0.00 in
09:15 41.2 °F 40.6 °F 30.53 in Calm   4.0 mph 98 % 0.00 in
09:30 41.2 °F 40.6 °F 30.52 in SSW 1.0 mph 5.0 mph 98 % 0.00 in
09:45 41.4 °F 40.8 °F 30.52 in Calm   1.0 mph 98 % 0.00 in
10:00 41.4 °F 40.8 °F 30.53 in Calm   3.0 mph 98 % 0.00 in
10:15 41.2 °F 40.6 °F 30.53 in SSW 1.0 mph 7.0 mph 98 % 0.00 in
10:30 41.2 °F 40.6 °F 30.53 in Calm   3.0 mph 98 % 0.00 in
10:45 41.2 °F 40.6 °F 30.53 in South 1.0 mph 5.0 mph 98 % 0.00 in
11:00 41.5 °F 41.0 °F 30.53 in Calm   3.0 mph 98 % 0.00 in
11:15 41.5 °F 41.0 °F 30.53 in SW 1.0 mph 6.0 mph 98 % 0.00 in
11:30 41.9 °F 41.4 °F 30.52 in South 1.0 mph 4.0 mph 98 % 0.00 in
11:45 42.1 °F 41.5 °F 30.52 in SSW 1.0 mph 3.0 mph 98 % 0.00 in
12:00 42.3 °F 41.7 °F 30.51 in Calm   2.0 mph 98 % 0.00 in
12:15 42.6 °F 42.1 °F 30.51 in Calm   4.0 mph 98 % 0.00 in
12:30 42.6 °F 42.3 °F 30.51 in SW 1.0 mph 5.0 mph 98 % 0.00 in
12:45 43.2 °F 42.6 °F 30.51 in Calm     98 % 0.00 in
13:00 43.3 °F 42.8 °F 30.51 in Calm   2.0 mph 98 % 0.00 in
13:15 43.5 °F 43.0 °F 30.51 in Calm   2.0 mph 98 % 0.00 in
13:30 43.7 °F 43.0 °F 30.51 in South 1.0 mph 4.0 mph 97 % 0.00 in
13:45 43.9 °F 43.2 °F 30.51 in Calm   4.0 mph 97 % 0.00 in
14:00 44.1 °F 43.2 °F 30.50 in Calm   4.0 mph 97 % 0.00 in
14:15 44.1 °F 43.2 °F 30.50 in Calm   4.0 mph 97 % 0.00 in
14:30 44.1 °F 43.2 °F 30.50 in Calm   3.0 mph 97 % 0.00 in
14:45 44.1 °F 43.0 °F 30.50 in Calm   4.0 mph 96 % 0.00 in
15:00 44.2 °F 43.2 °F 30.50 in Calm   4.0 mph 96 % 0.00 in
15:15 44.2 °F 43.2 °F 30.50 in Calm   4.0 mph 96 % 0.00 in
15:30 44.2 °F 43.2 °F 30.50 in SSE 1.0 mph 4.0 mph 96 % 0.00 in
15:45 44.2 °F 43.0 °F 30.49 in South 1.0 mph 4.0 mph 95 % 0.00 in
16:00 44.2 °F 42.8 °F 30.49 in Calm   4.0 mph 95 % 0.00 in
16:15 44.4 °F 43.0 °F 30.49 in Calm   2.0 mph 95 % 0.00 in
16:30 44.2 °F 43.0 °F 30.49 in SSE 1.0 mph 6.0 mph 95 % 0.00 in
16:45 44.4 °F 43.0 °F 30.48 in Calm   5.0 mph 95 % 0.00 in
17:00 44.4 °F 43.0 °F 30.48 in Calm     95 % 0.00 in
17:15 44.4 °F 43.2 °F 30.48 in Calm     95 % 0.00 in
17:30 44.4 °F 43.2 °F 30.49 in Calm   2.0 mph 95 % 0.00 in
17:45 44.4 °F 43.0 °F 30.49 in Calm   1.0 mph 95 % 0.00 in
18:00 44.2 °F 42.8 °F 30.49 in Calm   1.0 mph 95 % 0.00 in
18:15 44.1 °F 42.8 °F 30.49 in Calm   4.0 mph 95 % 0.00 in
18:30 43.9 °F 42.4 °F 30.49 in Calm   1.0 mph 95 % 0.00 in
18:45 43.7 °F 42.4 °F 30.49 in Calm   3.0 mph 95 % 0.00 in
19:00 43.7 °F 42.6 °F 30.49 in Calm     96 % 0.00 in
19:15 43.5 °F 42.6 °F 30.49 in Calm   4.0 mph 96 % 0.00 in
19:30 43.5 °F 42.4 °F 30.48 in Calm   2.0 mph 96 % 0.00 in
19:45 43.5 °F 42.4 °F 30.48 in Calm     96 % 0.00 in
20:00 43.3 °F 42.3 °F 30.48 in Calm   2.0 mph 96 % 0.00 in
20:15 43.3 °F 42.3 °F 30.48 in Calm     96 % 0.00 in
20:30 43.5 °F 42.4 °F 30.48 in Calm     96 % 0.00 in
20:45 43.3 °F 42.6 °F 30.48 in Calm     97 % 0.00 in
21:00 43.3 °F 42.6 °F 30.48 in Calm     97 % 0.00 in
21:15 43.3 °F 42.6 °F 30.48 in Calm   1.0 mph 97 % 0.00 in
21:30 43.3 °F 42.4 °F 30.48 in Calm     97 % 0.00 in
21:45 43.2 °F 42.4 °F 30.48 in Calm     97 % 0.00 in
22:00 43.2 °F 42.3 °F 30.48 in Calm     97 % 0.00 in
22:15 42.8 °F 42.1 °F 30.48 in Calm     97 % 0.00 in
22:30 42.6 °F 41.9 °F 30.48 in Calm   5.0 mph 97 % 0.00 in
22:45 42.6 °F 41.7 °F 30.48 in Calm   1.0 mph 97 % 0.00 in
23:00 42.4 °F 41.7 °F 30.48 in Calm     97 % 0.00 in
23:15 42.4 °F 41.5 °F 30.48 in Calm   1.0 mph 97 % 0.00 in
23:30 42.3 °F 41.4 °F 30.48 in Calm     97 % 0.00 in
23:45 42.1 °F 41.4 °F 30.48 in Calm   4.0 mph 97 % 0.00 in
Esan sääasema
Terveisin Weather Underground - 2.75 mb

Alkuperäinen skripti  Jim McMurry - jmcmurry@mwt.net Sovitettu myös templatelle  Wim van der Kuil - Leuven-Template.eu

Laitteet joita käytämme:

Sääasema
Davis VP2

Sääasemaohjelma
Cumulus

Sääaseman tietokone
Asus EeePC

Palveluntarjoaja
Suncomet

Davis VP2

Cumulus

Asus EeePC

Suncomet